Language: 


Des rapports , des résumés tant et plus, au choix de chacun....


Données statistiques de la station
Quotidien Rapport Janvier 10, 2018 Unités:  Métrique    Anglais   les deux
« Précédent Jour
Suivant Jour »
Quotidien Hebdomadaire Mensuel Annuel Actuel
  Haut: Bas: Moyen:
Température: -17.8 °C -15.6 °C -13.6 °C
Pt de rosée: -17.8 °C -15.6 °C -13.5 °C
Humidité: Humidity % 95 % 97 %
Vitesse du vent: 0 km/h 0 km/h 7.7 km/h
Rafales: 0 km/h - -
Vent:- - South
Pression: 0 hPa 34029.3 hPa -
Précipitation: 147.32 mm    
Historical Graphs
 
 
Données statistiques pour Janvier 10, 2018
Heure Température Point de rosée Pression Vent Vitesse du vent Refales Humidité Pluie (taux horaire)
-17.8 °C -17.8 °C 0 hPa Calm     Humidity % 0 mm
00:54 -13.6 °C -13.3 °C 34063.2 hPa Calm   10.3 km/h 98 % 0 mm
01:02 -13.6 °C -13.3 °C 34063.2 hPa Calm   8.9 km/h 98 % 0 mm
01:06 -13.6 °C -13.3 °C 34063.2 hPa SSE 12.7 km/h 15 km/h 98 % 0 mm
01:09 -13.6 °C -13.3 °C 34063.2 hPa Calm   15 km/h 98 % 0 mm
01:14 -13.6 °C -13.3 °C 34063.2 hPa South 8.9 km/h 22.5 km/h 98 % 0 mm
01:17 -13.6 °C -13.3 °C 34063.2 hPa South 14.5 km/h 22.5 km/h 98 % 0 mm
01:22 -13.6 °C -13.3 °C 34063.2 hPa SSE 6.9 km/h 16.9 km/h 98 % 0 mm
01:27 -13.5 °C -13.3 °C 34063.2 hPa SSW 8.9 km/h 16.9 km/h 98 % 0 mm
01:33 -13.5 °C -13.3 °C 34063.2 hPa Calm   16.9 km/h 98 % 0 mm
01:40 -13.5 °C -13.3 °C 34063.2 hPa South 11.1 km/h 19.2 km/h 98 % 0 mm
01:44 -13.5 °C -13.3 °C 34063.2 hPa Calm   16.9 km/h 98 % 0 mm
01:52 -13.5 °C -13.3 °C 34063.2 hPa South 17.4 km/h 17.4 km/h 98 % 0 mm
02:01 -13.4 °C -13.3 °C 34063.2 hPa South 14 km/h 17.4 km/h 98 % 0 mm
02:06 -13.4 °C -13.3 °C 34063.2 hPa SSW 8 km/h 16.9 km/h 98 % 0 mm
02:10 -13.4 °C -13.3 °C 34063.2 hPa SSE 14 km/h 16.9 km/h 98 % 0 mm
02:17 -13.4 °C -13.3 °C 34029.3 hPa South 15.6 km/h 20.3 km/h 98 % 0 mm
02:22 -13.4 °C -13.3 °C 34029.3 hPa South 11.1 km/h 20.3 km/h 98 % 0 mm
02:34 -13.4 °C -13.3 °C 34029.3 hPa SSE 15 km/h 15 km/h 98 % 0 mm
02:43 -13.3 °C -13.3 °C 34029.3 hPa Calm   16.9 km/h 98 % 0 mm
03:06 -13.3 °C -13.3 °C 34029.3 hPa Calm   12.7 km/h 98 % 7.62 mm
03:08 -13.3 °C -13.3 °C 34029.3 hPa South 8 km/h 15 km/h 98 % 7.62 mm
03:33 -13.3 °C -13.3 °C 34029.3 hPa SSE 17.4 km/h 24.8 km/h 98 % 33.02 mm
03:34 -13.3 °C -13.3 °C 34029.3 hPa South 14 km/h 24.8 km/h 98 % 33.02 mm
03:43 -13.3 °C -13.3 °C 34029.3 hPa SSE 15 km/h 20.3 km/h 98 % 38.1 mm
03:48 -13.3 °C -13.3 °C 34029.3 hPa SSE 14 km/h 20.9 km/h 98 % 45.72 mm
04:09 -13.3 °C -13.3 °C 34029.3 hPa South 9.3 km/h 22 km/h 98 % 58.42 mm
04:10 -13.3 °C -13.3 °C 34029.3 hPa South 19.6 km/h 22 km/h 98 % 58.42 mm
04:15 -13.3 °C -13.3 °C 34063.2 hPa SSE 7.6 km/h 26.7 km/h 98 % 58.42 mm
04:26 -13.3 °C -13.3 °C 34029.3 hPa South 9.8 km/h 25.4 km/h 98 % 45.72 mm
04:32 -13.3 °C -13.3 °C 34029.3 hPa South 8.9 km/h 25.4 km/h 98 % 58.42 mm
04:45 -13.3 °C -13.3 °C 34029.3 hPa SSE 16.3 km/h 24.3 km/h 98 % 63.5 mm
04:56 -13.3 °C -13.3 °C 34029.3 hPa South 12.7 km/h 26.7 km/h 98 % 58.42 mm
05:08 -13.3 °C -13.3 °C 34029.3 hPa SSE 15.6 km/h 27.7 km/h 98 % 45.72 mm
05:29 -13.3 °C -13.3 °C 34029.3 hPa SSW 16.3 km/h 26.2 km/h 98 % 38.1 mm
05:41 -13.3 °C -13.3 °C 34029.3 hPa SSW 8.9 km/h 27.7 km/h 98 % 33.02 mm
05:48 -13.3 °C -13.3 °C 34029.3 hPa South 19.2 km/h 23.8 km/h 98 % 12.7 mm
05:55 -13.3 °C -13.3 °C 34029.3 hPa SSW 16.3 km/h 22 km/h 98 % 12.7 mm
06:04 -13.3 °C -13.3 °C 34029.3 hPa South 14 km/h 22.5 km/h 98 % 7.62 mm
06:22 -13.3 °C -13.3 °C 34029.3 hPa SSW 19.2 km/h 19.6 km/h 98 % 7.62 mm
06:28 -13.3 °C -13.3 °C 34029.3 hPa SSE 22 km/h 22 km/h 98 % 0 mm
06:42 -13.3 °C -13.3 °C 34063.2 hPa South 14 km/h 22.5 km/h 98 % 0 mm
06:52 -13.3 °C -13.3 °C 34063.2 hPa South 15.6 km/h 22.5 km/h 98 % 0 mm
07:41 -13.3 °C -13.3 °C 34029.3 hPa SSW 22 km/h 24.8 km/h 98 % 7.62 mm
07:51 -13.3 °C -13.3 °C 34029.3 hPa SSW 8.9 km/h 22 km/h 98 % 7.62 mm
08:17 -13.3 °C -13.3 °C 34029.3 hPa South 14.5 km/h 22.5 km/h 98 % 0 mm
09:17 -13.8 °C -13.9 °C 34029.3 hPa SSW 14.5 km/h 22 km/h 98 % 7.62 mm
09:48 -13.7 °C -13.9 °C 34063.2 hPa Calm   20.9 km/h 98 % 0 mm
09:54 -13.7 °C -13.9 °C 34063.2 hPa South 9.3 km/h 19.2 km/h 98 % 0 mm
10:17 -13.7 °C -13.9 °C 34097 hPa SSW 15 km/h 23.8 km/h 98 % 0 mm
10:28 -13.7 °C -13.9 °C 34097 hPa South 14 km/h 20.3 km/h 98 % 0 mm
11:16 -13.5 °C -13.3 °C 34097 hPa SSW 9.3 km/h 16.9 km/h 98 % 7.62 mm
11:55 -13.3 °C -13.3 °C 34097 hPa SW 16.3 km/h 18.7 km/h 98 % 0 mm
12:01 -13.2 °C -13.3 °C 34097 hPa SW 9.3 km/h 18.7 km/h 98 % 0 mm
12:08 -13.2 °C -12.8 °C 34097 hPa SW 12.7 km/h 20.9 km/h 98 % 0 mm
12:34 -13.1 °C -12.8 °C 34063.2 hPa South 11.1 km/h 25.4 km/h 98 % 0 mm
13:13 -12.8 °C -12.8 °C 34063.2 hPa Calm   24.8 km/h 98 % 0 mm
13:36 -12.5 °C -12.2 °C 34063.2 hPa South 14.5 km/h 17.9 km/h 98 % 0 mm
13:50 -12.4 °C -12.2 °C 34063.2 hPa SW 14 km/h 14.5 km/h 98 % 0 mm
14:06 -12.4 °C -12.2 °C 34029.3 hPa SSW 14 km/h 18.7 km/h 98 % 0 mm
14:16 -12.4 °C -12.2 °C 34029.3 hPa SSW 19.2 km/h 26.7 km/h 98 % 0 mm
14:21 -12.4 °C -12.2 °C 34029.3 hPa SW 14 km/h 26.7 km/h 98 % 0 mm
14:59 -12.1 °C -12.2 °C 34063.2 hPa WSW 15.6 km/h 26.7 km/h 97 % 0 mm
15:04 -12.2 °C -12.2 °C 34063.2 hPa SSW 20.3 km/h 22 km/h 96 % 0 mm
15:25 -12.3 °C -12.8 °C 34029.3 hPa Calm   20.9 km/h 96 % 0 mm
15:35 -12.4 °C -12.8 °C 34029.3 hPa SSW 10.3 km/h 16.3 km/h 96 % 0 mm
15:40 -12.4 °C -12.8 °C 34029.3 hPa SW 8 km/h 16.3 km/h 96 % 0 mm
15:45 -12.4 °C -12.8 °C 34063.2 hPa SSW 12.2 km/h 15.6 km/h 96 % 0 mm
15:50 -12.4 °C -12.8 °C 34063.2 hPa SW 6.9 km/h 17.4 km/h 96 % 0 mm
15:59 -12.3 °C -12.2 °C 34063.2 hPa Calm   16.3 km/h 96 % 0 mm
16:09 -12.4 °C -12.8 °C 34063.2 hPa SW 10.3 km/h 14 km/h 96 % 0 mm
16:15 -12.5 °C -12.8 °C 34063.2 hPa Calm   14 km/h 95 % 0 mm
16:33 -12.8 °C -12.8 °C 34063.2 hPa SSW 6.9 km/h 15 km/h 96 % 0 mm
16:41 -12.9 °C -12.8 °C 34097 hPa Calm   15 km/h 96 % 0 mm
16:50 -13.1 °C -12.8 °C 34097 hPa SSW 2.9 km/h 10.3 km/h 96 % 0 mm
16:59 -13.1 °C -12.8 °C 34097 hPa South 10.3 km/h 12.7 km/h 97 % 0 mm
17:08 -13.1 °C -12.8 °C 34097 hPa South 11.1 km/h 14.5 km/h 97 % 0 mm
17:19 -13.1 °C -12.8 °C 34097 hPa South 8.9 km/h 15 km/h 98 % 0 mm
17:25 -13.1 °C -12.8 °C 34097 hPa South 11.1 km/h 15 km/h 98 % 0 mm
17:40 -13.2 °C -13.3 °C 34097 hPa Calm   17.4 km/h 98 % 0 mm
17:45 -13.2 °C -13.3 °C 34097 hPa SSW 11.1 km/h 17.4 km/h 98 % 0 mm
17:51 -13.3 °C -13.3 °C 34097 hPa Calm   14 km/h 98 % 0 mm
17:56 -13.3 °C -13.3 °C 34097 hPa Calm   14.5 km/h 98 % 0 mm
18:04 -13.3 °C -13.3 °C 34097 hPa SSW 14 km/h 14.5 km/h 98 % 0 mm
18:11 -13.3 °C -13.3 °C 34097 hPa SSW 5.6 km/h 18.7 km/h 98 % 0 mm
18:16 -13.3 °C -13.3 °C 34097 hPa SSW 2.3 km/h 18.7 km/h 98 % 0 mm
18:21 -13.2 °C -13.3 °C 34097 hPa SSW 9.3 km/h 16.3 km/h 98 % 0 mm
18:30 -13.2 °C -13.3 °C 34097 hPa Calm   15 km/h 98 % 0 mm
18:35 -13.2 °C -13.3 °C 34097 hPa SSW 11.1 km/h 12.7 km/h 98 % 0 mm
18:40 -13.2 °C -13.3 °C 34097 hPa South 15.6 km/h 15.6 km/h 98 % 0 mm
18:45 -13.2 °C -13.3 °C 34097 hPa SSW 5.1 km/h 15.6 km/h 98 % 0 mm
18:53 -13.3 °C -13.3 °C 34097 hPa Calm   15 km/h 98 % 0 mm
18:59 -13.3 °C -13.3 °C 34063.2 hPa Calm   15 km/h 98 % 0 mm
19:04 -13.3 °C -13.3 °C 34063.2 hPa Calm   11.1 km/h 98 % 0 mm
19:10 -13.3 °C -13.3 °C 34063.2 hPa SSW 5.1 km/h 12.7 km/h 98 % 0 mm
19:19 -13.3 °C -13.3 °C 34097 hPa SSW 15.6 km/h 16.9 km/h 98 % 0 mm
19:24 -13.3 °C -13.3 °C 34097 hPa South 16.3 km/h 16.9 km/h 98 % 0 mm
19:31 -13.3 °C -13.3 °C 34130.9 hPa Calm   16.3 km/h 98 % 0 mm
19:40 -13.3 °C -13.3 °C 34130.9 hPa Calm   18.7 km/h 98 % 0 mm
19:52 -13.3 °C -13.3 °C 34130.9 hPa SSW 7.6 km/h 16.3 km/h 98 % 0 mm
19:58 -13.3 °C -13.3 °C 34130.9 hPa Calm   14 km/h 98 % 0 mm
20:07 -13.4 °C -13.3 °C 34130.9 hPa Calm   8.9 km/h 98 % 0 mm
20:15 -13.5 °C -13.3 °C 34130.9 hPa Calm   8.9 km/h 98 % 0 mm
20:25 -13.7 °C -13.9 °C 34130.9 hPa Calm     98 % 0 mm
20:36 -13.9 °C -13.9 °C 34097 hPa South 7.6 km/h 11.1 km/h 98 % 0 mm
20:55 -14.1 °C -13.9 °C 34097 hPa Calm   5.6 km/h 98 % 0 mm
21:00 -14.2 °C -13.9 °C 34097 hPa Calm   2.3 km/h 98 % 0 mm
21:14 -14.3 °C -14.4 °C 34130.9 hPa Calm   6.4 km/h 98 % 0 mm
21:29 -14.4 °C -14.4 °C 34130.9 hPa Calm   2.9 km/h 98 % 0 mm
21:48 -14.7 °C -14.4 °C 34130.9 hPa Calm     98 % 0 mm
21:55 -14.8 °C -14.4 °C 34130.9 hPa Calm     98 % 0 mm
22:04 -14.9 °C -15 °C 34164.7 hPa Calm     98 % 0 mm
22:12 -14.9 °C -15 °C 34164.7 hPa Calm     98 % 0 mm
22:20 -15 °C -15 °C 34164.7 hPa Calm     98 % 0 mm
22:25 -15 °C -15 °C 34164.7 hPa Calm     98 % 0 mm
22:30 -15.1 °C -15 °C 34164.7 hPa Calm   2.3 km/h 98 % 0 mm
22:34 -15.1 °C -15 °C 34164.7 hPa Calm   2.3 km/h 98 % 0 mm
22:46 -15.1 °C -15 °C 34164.7 hPa Calm     98 % 0 mm
22:57 -15.2 °C -15 °C 34164.7 hPa Calm   6.4 km/h 98 % 0 mm
23:04 -15.2 °C -15 °C 34164.7 hPa Calm     98 % 0 mm
23:11 -15.2 °C -15 °C 34164.7 hPa Calm     98 % 0 mm
23:19 -15.2 °C -15 °C 34164.7 hPa Calm     98 % 0 mm
23:25 -15.2 °C -15 °C 34164.7 hPa Calm     98 % 0 mm
23:33 -15.4 °C -15.6 °C 34164.7 hPa Calm     98 % 0 mm
23:40 -15.5 °C -15.6 °C 34164.7 hPa Calm     98 % 0 mm
23:48 -15.6 °C -15.6 °C 34164.7 hPa Calm     98 % 0 mm
Le Gheer Warneton
Courtoisie de Weather Underground - 1.5 mb

Mise a jour : 18/02/2018 20:35:11
Généré par Cumulus 1.9.4 (1099)